Pagrindinis puslapis
METAR-TAF:

METAR-TAF

Oro uostai :

Trasa Zeltweg

Zeltweg, Austrija

platuma: 47-12N, ilguma: 014-45E, Aukštis: 677 m

Dabartinis oras

Ataskaita buvo paskelbta 17 minutes, ne 11:20 UTC
Vėjas 2 kt nuo kintamojo kryptimis
Temperatūra 16°C
Drėgmė 55%
Slėgis 1025 hPa

METAR: LOXZ 211120Z VRB02KT 40KM FEW300CI 16/07 Q1025 NOSIG

Laikas: 13:37 (11:37 UTC)

Prognozė

Ataskaita buvo paskelbta 3 valandos ir 22 minutes, ne 08:15 UTC
Prognozė galioja nuo 21 metu 09 UTC su 21 metu 18 UTC
Vėjas 2 kt nuo kintamojo kryptimis
Matomumas 10 km arba daugiau
Giedras dangus
Laikinai
nuo 21 metu 12 UTC su 21 metu 16 UTC
Vėjas 8 kt iš Rytų/Pietryčių
Mažai debesys ne aukštis 7000 ft

TAF: LOXZ 210815Z 2109/2118 VRB02KT 9999 SKC TEMPO 2112/2116 12008KT FEW070

Orai ataskaitas ir orų prognozės (METAR, TAF).

turimą stotys yra geltonos ir raudonos taškus žemėlapyje.

Perkelti pele per norėdami pamatyti stoties vardą.

Tada spustelėkite, norėdami matyti oro stebėjimo ir prognozės.

Norėdami pakeisti žemėlapį: spustelėkite ant žalios mygtukų su juodo kryžiaus žemyn,; žalią mygtuką su brūkšneliu, jei norite nutolinti; arba žalių rodyklių gretimoms žemėlapius.


METAR-TAF: